createdAt,value
2018-10-18T00:00:47.724Z,20.30
2018-10-18T00:03:17.044Z,17.50
2018-10-18T00:05:46.938Z,17.43
2018-10-18T00:08:16.861Z,18.13
2018-10-18T00:10:46.402Z,19.10
2018-10-18T00:13:15.801Z,20.07
2018-10-18T00:15:45.485Z,19.30
2018-10-18T00:18:14.751Z,18.23
2018-10-18T00:20:44.441Z,16.40
2018-10-18T00:23:13.866Z,17.37
2018-10-18T00:25:43.370Z,18.57
2018-10-18T00:28:12.798Z,18.10
2018-10-18T00:30:42.168Z,17.23
2018-10-18T00:33:11.447Z,16.67
2018-10-18T00:35:40.860Z,15.53
2018-10-18T00:38:10.366Z,15.57
2018-10-18T00:40:39.670Z,13.97
2018-10-18T00:43:09.158Z,14.83
2018-10-18T00:45:38.483Z,15.73
2018-10-18T00:48:07.873Z,16.00
2018-10-18T00:50:37.297Z,14.77
2018-10-18T00:53:06.834Z,16.23
2018-10-18T00:55:35.955Z,16.43
2018-10-18T00:58:05.766Z,16.30
2018-10-18T01:00:35.121Z,14.07
2018-10-18T01:03:04.373Z,14.30
2018-10-18T01:05:33.747Z,14.97
2018-10-18T01:08:03.328Z,13.40
2018-10-18T01:10:32.657Z,14.00
2018-10-18T01:13:33.342Z,12.80
2018-10-18T01:16:03.057Z,12.47
2018-10-18T01:18:32.608Z,12.77
2018-10-18T01:21:02.430Z,13.87
2018-10-18T01:23:31.686Z,13.13
2018-10-18T01:26:01.264Z,12.60
2018-10-18T01:28:30.900Z,12.50
2018-10-18T01:31:00.386Z,12.70
2018-10-18T01:33:29.597Z,11.80
2018-10-18T01:35:59.188Z,10.73
2018-10-18T01:38:28.423Z,11.87
2018-10-18T01:40:57.929Z,10.33
2018-10-18T01:43:27.634Z,10.00
2018-10-18T01:45:57.209Z,10.00
2018-10-18T01:48:26.586Z,10.80
2018-10-18T01:50:56.146Z,9.60
2018-10-18T01:53:25.391Z,9.90
2018-10-18T01:55:54.554Z,10.23
2018-10-18T01:58:24.714Z,10.37
2018-10-18T02:00:53.914Z,11.10
2018-10-18T02:03:23.474Z,9.83
2018-10-18T02:05:53.427Z,9.90
2018-10-18T02:08:23.063Z,10.90
2018-10-18T02:10:52.452Z,10.27
2018-10-18T02:13:22.384Z,10.40
2018-10-18T02:15:51.668Z,9.87
2018-10-18T02:18:21.241Z,9.93
2018-10-18T02:20:51.086Z,9.93
2018-10-18T02:23:20.402Z,9.37
2018-10-18T02:25:50.039Z,7.77
2018-10-18T02:28:19.539Z,6.20
2018-10-18T02:30:48.670Z,6.57
2018-10-18T02:33:18.173Z,5.33
2018-10-18T02:35:47.526Z,5.37
2018-10-18T02:38:16.917Z,4.60
2018-10-18T02:40:46.452Z,5.00
2018-10-18T02:43:15.985Z,4.90
2018-10-18T02:45:45.313Z,5.20
2018-10-18T02:48:14.834Z,4.43
2018-10-18T02:50:44.423Z,4.60
2018-10-18T02:53:13.605Z,4.27
2018-10-18T02:55:42.758Z,4.37
2018-10-18T02:58:12.294Z,4.23
2018-10-18T03:00:41.545Z,4.03
2018-10-18T03:03:11.139Z,3.83
2018-10-18T03:05:40.828Z,3.90
2018-10-18T03:08:10.140Z,3.90
2018-10-18T03:10:40.253Z,3.67
2018-10-18T03:13:09.633Z,3.67
2018-10-18T03:15:38.493Z,3.40
2018-10-18T03:18:08.325Z,3.50
2018-10-18T03:20:37.758Z,3.27
2018-10-18T03:23:07.071Z,4.07
2018-10-18T03:25:36.554Z,3.83
2018-10-18T03:28:06.235Z,3.80
2018-10-18T03:30:35.471Z,4.43
2018-10-18T03:33:05.178Z,3.73
2018-10-18T03:35:34.840Z,3.10
2018-10-18T03:38:04.642Z,3.57
2018-10-18T03:40:34.024Z,3.37
2018-10-18T03:43:03.446Z,2.93
2018-10-18T03:45:32.863Z,3.10
2018-10-18T03:48:02.555Z,3.20
2018-10-18T03:50:32.141Z,3.20
2018-10-18T03:53:01.437Z,3.43
2018-10-18T03:55:31.016Z,3.57
2018-10-18T03:58:00.598Z,2.97
2018-10-18T04:00:30.126Z,3.07
2018-10-18T04:02:59.593Z,2.80
2018-10-18T04:05:29.103Z,2.90
2018-10-18T04:07:58.453Z,2.60
2018-10-18T04:10:28.146Z,2.63
2018-10-18T04:12:57.639Z,3.10
2018-10-18T04:15:26.855Z,2.70
2018-10-18T04:17:57.032Z,2.70
2018-10-18T04:20:26.401Z,3.10
2018-10-18T04:22:55.528Z,2.10
2018-10-18T04:25:25.044Z,2.60
2018-10-18T04:27:54.443Z,2.60
2018-10-18T04:30:24.595Z,2.23
2018-10-18T04:32:53.878Z,2.27
2018-10-18T04:35:23.436Z,2.53
2018-10-18T04:37:52.697Z,2.30
2018-10-18T04:40:22.145Z,2.43
2018-10-18T04:42:51.912Z,2.23
2018-10-18T04:45:21.379Z,2.10
2018-10-18T04:47:50.815Z,2.70
2018-10-18T04:50:20.077Z,2.60
2018-10-18T04:52:49.292Z,2.47
2018-10-18T04:55:18.728Z,2.40
2018-10-18T04:57:48.193Z,2.20
2018-10-18T05:00:17.490Z,2.10
2018-10-18T05:02:47.129Z,1.77
2018-10-18T05:05:27.420Z,2.40
2018-10-18T05:07:56.946Z,1.90
2018-10-18T05:10:26.179Z,2.23
2018-10-18T05:12:56.167Z,1.97
2018-10-18T05:15:25.774Z,2.07
2018-10-18T05:17:55.023Z,2.20
2018-10-18T05:20:24.608Z,1.90
2018-10-18T05:22:54.043Z,2.47
2018-10-18T05:25:23.299Z,2.13
2018-10-18T05:27:52.931Z,2.17
2018-10-18T05:30:22.485Z,2.47
2018-10-18T05:32:52.019Z,3.47
2018-10-18T05:35:21.481Z,2.40
2018-10-18T05:37:50.972Z,2.10
2018-10-18T05:40:20.368Z,2.30
2018-10-18T05:42:50.194Z,2.23
2018-10-18T05:45:19.502Z,2.17
2018-10-18T05:47:48.982Z,1.80
2018-10-18T05:50:18.671Z,2.47
2018-10-18T05:52:48.091Z,2.67
2018-10-18T05:55:17.472Z,2.50
2018-10-18T05:57:47.078Z,2.37
2018-10-18T06:00:17.559Z,2.70
2018-10-18T06:02:47.044Z,2.60
2018-10-18T06:05:17.253Z,3.07
2018-10-18T06:07:46.707Z,2.40
2018-10-18T06:10:27.458Z,2.60
2018-10-18T06:12:56.988Z,2.37
2018-10-18T06:15:26.290Z,2.20
2018-10-18T06:17:55.909Z,2.13
2018-10-18T06:20:25.350Z,1.50
2018-10-18T06:22:54.861Z,2.10
2018-10-18T06:25:24.336Z,1.77
2018-10-18T06:27:53.985Z,1.53
2018-10-18T06:30:23.566Z,1.70
2018-10-18T06:32:53.152Z,2.20
2018-10-18T06:35:22.800Z,1.50
2018-10-18T06:37:53.024Z,2.13
2018-10-18T06:40:22.829Z,1.93
2018-10-18T06:42:52.273Z,2.03
2018-10-18T06:45:21.521Z,2.03
2018-10-18T06:47:51.445Z,1.80
2018-10-18T06:50:21.675Z,2.33
2018-10-18T06:52:51.028Z,1.70
2018-10-18T06:55:20.780Z,1.77
2018-10-18T06:57:50.351Z,1.87
2018-10-18T07:00:23.605Z,1.73
2018-10-18T07:02:53.129Z,1.83
2018-10-18T07:05:22.761Z,2.20
2018-10-18T07:07:51.926Z,1.50
2018-10-18T07:10:21.177Z,2.50
2018-10-18T07:12:50.906Z,1.57
2018-10-18T07:15:20.333Z,1.87
2018-10-18T07:17:50.042Z,2.70
2018-10-18T07:20:19.923Z,4.13
2018-10-18T07:22:49.414Z,2.70
2018-10-18T07:25:18.975Z,1.87
2018-10-18T07:27:48.170Z,1.70
2018-10-18T07:30:17.641Z,2.47
2018-10-18T07:32:47.108Z,1.80
2018-10-18T07:35:16.730Z,1.40
2018-10-18T07:37:46.058Z,1.80
2018-10-18T07:40:16.542Z,1.40
2018-10-18T07:42:46.068Z,1.67
2018-10-18T07:45:15.833Z,1.50
2018-10-18T07:47:46.039Z,1.70
2018-10-18T07:50:15.811Z,1.90
2018-10-18T07:52:45.021Z,1.73
2018-10-18T07:55:14.449Z,1.83
2018-10-18T07:57:44.244Z,1.53
2018-10-18T08:00:16.194Z,1.70
2018-10-18T08:02:46.054Z,1.63
2018-10-18T08:05:16.097Z,1.90
2018-10-18T08:07:45.480Z,2.00
2018-10-18T08:10:18.096Z,1.20
2018-10-18T08:12:47.608Z,1.30
2018-10-18T08:15:17.769Z,1.33
2018-10-18T08:17:47.477Z,1.50
2018-10-18T08:20:17.147Z,1.20
2018-10-18T08:22:46.708Z,1.80
2018-10-18T08:25:16.088Z,1.67
2018-10-18T08:27:45.500Z,1.60
2018-10-18T08:30:15.037Z,1.57
2018-10-18T08:32:44.261Z,1.80
2018-10-18T08:35:14.074Z,1.20
2018-10-18T08:37:44.055Z,1.30
2018-10-18T08:40:13.543Z,0.93
2018-10-18T08:42:42.998Z,1.20
2018-10-18T08:45:12.958Z,1.40
2018-10-18T08:47:43.293Z,1.63
2018-10-18T08:50:13.470Z,1.20
2018-10-18T08:52:43.064Z,1.27
2018-10-18T08:55:13.905Z,1.50
2018-10-18T08:57:43.729Z,1.50
2018-10-18T09:00:13.637Z,1.30
2018-10-18T09:02:43.388Z,1.73
2018-10-18T09:05:12.738Z,1.40
2018-10-18T09:07:42.352Z,1.00
2018-10-18T09:10:11.658Z,1.40
2018-10-18T09:12:40.873Z,1.70
2018-10-18T09:15:11.193Z,2.27
2018-10-18T09:17:40.305Z,1.70
2018-10-18T09:20:09.435Z,2.33
2018-10-18T09:22:38.921Z,1.40
2018-10-18T09:25:09.521Z,1.77
2018-10-18T09:27:38.942Z,2.00
2018-10-18T09:30:09.546Z,1.43
2018-10-18T09:32:39.011Z,1.57
2018-10-18T09:35:08.443Z,1.50
2018-10-18T09:37:38.222Z,1.47
2018-10-18T09:40:09.240Z,1.23
2018-10-18T09:42:38.503Z,1.30
2018-10-18T09:45:09.728Z,1.30
2018-10-18T09:47:39.081Z,1.40
2018-10-18T09:50:08.949Z,1.50
2018-10-18T09:52:38.949Z,1.40
2018-10-18T09:55:10.077Z,1.40
2018-10-18T09:57:39.212Z,1.37
2018-10-18T10:00:13.021Z,1.50
2018-10-18T10:02:47.423Z,1.77
2018-10-18T10:05:16.901Z,1.63
2018-10-18T10:07:46.363Z,1.23
2018-10-18T10:10:15.907Z,1.27
2018-10-18T10:12:45.891Z,1.93
2018-10-18T10:15:15.168Z,1.60
2018-10-18T10:17:44.475Z,1.70
2018-10-18T10:20:14.058Z,1.30
2018-10-18T10:22:44.719Z,1.80
2018-10-18T10:25:14.328Z,1.30
2018-10-18T10:27:43.741Z,1.40
2018-10-18T10:30:12.912Z,1.10
2018-10-18T10:32:42.346Z,1.50
2018-10-18T10:35:11.657Z,2.17
2018-10-18T10:37:40.948Z,2.40
2018-10-18T10:40:11.076Z,1.87
2018-10-18T10:42:41.205Z,1.43
2018-10-18T10:45:11.639Z,1.60
2018-10-18T10:47:41.128Z,1.30
2018-10-18T10:50:11.210Z,1.30
2018-10-18T10:52:40.696Z,1.30
2018-10-18T10:55:10.937Z,2.47
2018-10-18T10:57:40.316Z,1.53
2018-10-18T11:00:09.636Z,1.27
2018-10-18T11:02:39.103Z,1.23
2018-10-18T11:05:08.592Z,1.63
2018-10-18T11:07:38.132Z,1.50
2018-10-18T11:10:07.947Z,1.83
2018-10-18T11:12:37.785Z,1.40
2018-10-18T11:15:07.033Z,1.50
2018-10-18T11:17:36.471Z,1.50
2018-10-18T11:20:06.555Z,1.43
2018-10-18T11:22:35.984Z,1.43
2018-10-18T11:25:05.752Z,1.17
2018-10-18T11:27:35.218Z,1.40
2018-10-18T11:30:04.821Z,1.70
2018-10-18T11:32:34.320Z,2.53
2018-10-18T11:35:03.795Z,1.30
2018-10-18T11:37:33.067Z,1.50
2018-10-18T11:40:02.908Z,1.87
2018-10-18T11:42:32.466Z,1.40
2018-10-18T11:45:02.611Z,1.40
2018-10-18T11:47:32.084Z,1.40
2018-10-18T11:50:01.570Z,1.83
2018-10-18T11:52:30.812Z,1.47
2018-10-18T11:55:00.265Z,1.10
2018-10-18T11:57:29.776Z,1.20
2018-10-18T11:59:59.385Z,1.23
2018-10-18T12:02:29.099Z,1.20
2018-10-18T12:04:58.481Z,1.27
2018-10-18T12:07:28.222Z,1.60
2018-10-18T12:09:57.892Z,1.20
2018-10-18T12:12:27.186Z,1.70
2018-10-18T12:14:56.719Z,5.67
2018-10-18T12:17:26.178Z,1.60
2018-10-18T12:19:55.498Z,1.23
2018-10-18T12:22:25.004Z,1.33
2018-10-18T12:24:54.361Z,1.30
2018-10-18T12:27:24.638Z,1.43
2018-10-18T12:29:54.023Z,1.27
2018-10-18T12:32:23.429Z,1.23
2018-10-18T12:34:52.931Z,1.60
2018-10-18T12:37:22.683Z,1.00
2018-10-18T12:39:52.171Z,1.50
2018-10-18T12:42:21.618Z,1.47
2018-10-18T12:44:51.282Z,1.43
2018-10-18T12:47:21.267Z,1.40
2018-10-18T12:49:50.600Z,1.00
2018-10-18T12:52:20.128Z,1.30
2018-10-18T12:54:49.395Z,1.20
2018-10-18T12:57:18.452Z,1.40
2018-10-18T12:59:48.118Z,1.13
2018-10-18T13:02:17.920Z,1.23
2018-10-18T13:04:47.401Z,1.40
2018-10-18T13:07:16.808Z,0.90
2018-10-18T13:09:46.575Z,1.50
2018-10-18T13:12:16.006Z,1.20
2018-10-18T13:14:45.722Z,1.50
2018-10-18T13:17:15.361Z,1.40
2018-10-18T13:19:44.736Z,1.97
2018-10-18T13:22:14.517Z,1.27
2018-10-18T13:24:44.333Z,1.60
2018-10-18T13:27:13.715Z,1.30
2018-10-18T13:29:43.095Z,1.40
2018-10-18T13:32:12.623Z,1.57
2018-10-18T13:34:41.928Z,1.70
2018-10-18T13:37:11.407Z,1.30
2018-10-18T13:39:41.022Z,1.30
2018-10-18T13:42:10.480Z,1.10
2018-10-18T13:44:40.025Z,1.00
2018-10-18T13:47:09.497Z,0.90
2018-10-18T13:49:38.796Z,1.27
2018-10-18T13:52:08.337Z,1.33
2018-10-18T13:54:38.178Z,1.77
2018-10-18T13:57:07.504Z,1.03
2018-10-18T13:59:47.965Z,1.10
2018-10-18T14:02:17.324Z,0.93
2018-10-18T14:04:46.714Z,1.07
2018-10-18T14:07:16.485Z,0.90
2018-10-18T14:09:46.024Z,1.73
2018-10-18T14:12:15.320Z,1.23
2018-10-18T14:14:44.944Z,1.17
2018-10-18T14:17:14.122Z,1.20
2018-10-18T14:19:43.433Z,0.97
2018-10-18T14:22:13.190Z,1.03
2018-10-18T14:24:42.796Z,1.10
2018-10-18T14:27:12.128Z,1.63
2018-10-18T14:29:41.789Z,1.10
2018-10-18T14:32:11.136Z,1.00
2018-10-18T14:34:40.275Z,1.13
2018-10-18T14:37:09.997Z,1.20
2018-10-18T14:39:39.373Z,1.10
2018-10-18T14:42:08.571Z,1.23
2018-10-18T14:44:38.044Z,0.97
2018-10-18T14:47:07.534Z,0.90
2018-10-18T14:49:36.833Z,1.40
2018-10-18T14:52:07.090Z,1.33
2018-10-18T14:54:36.304Z,1.20
2018-10-18T14:57:05.865Z,1.10
2018-10-18T14:59:35.749Z,1.60
2018-10-18T15:02:05.785Z,1.30
2018-10-18T15:04:35.661Z,1.50
2018-10-18T15:07:05.781Z,2.33
2018-10-18T15:09:35.307Z,2.40
2018-10-18T15:12:05.220Z,1.40
2018-10-18T15:14:34.646Z,1.50
2018-10-18T15:17:03.883Z,1.00
2018-10-18T15:19:33.417Z,1.30
2018-10-18T15:22:02.914Z,1.10
2018-10-18T15:24:32.451Z,1.40
2018-10-18T15:27:01.842Z,1.50
2018-10-18T15:29:31.332Z,1.23
2018-10-18T15:32:00.526Z,1.60
2018-10-18T15:34:29.930Z,2.37
2018-10-18T15:36:59.798Z,3.20
2018-10-18T15:39:29.345Z,1.50
2018-10-18T15:41:59.244Z,1.60
2018-10-18T15:44:28.626Z,7.23
2018-10-18T15:46:57.938Z,1.80
2018-10-18T15:49:27.714Z,1.90
2018-10-18T15:51:57.132Z,1.23
2018-10-18T15:54:26.555Z,1.63
2018-10-18T15:56:56.281Z,4.80
2018-10-18T15:59:27.235Z,2.17
2018-10-18T16:01:56.799Z,2.00
2018-10-18T16:04:26.281Z,1.90
2018-10-18T16:06:56.059Z,2.37
2018-10-18T16:09:25.979Z,3.20
2018-10-18T16:11:55.347Z,1.93
2018-10-18T16:14:25.442Z,1.80
2018-10-18T16:16:55.017Z,2.30
2018-10-18T16:19:24.410Z,1.80
2018-10-18T16:21:53.934Z,1.90
2018-10-18T16:24:24.211Z,1.40
2018-10-18T16:26:53.342Z,1.70
2018-10-18T16:29:23.835Z,1.77
2018-10-18T16:31:53.250Z,1.50
2018-10-18T16:34:23.118Z,1.03
2018-10-18T16:36:53.062Z,1.70
2018-10-18T16:39:22.576Z,1.57
2018-10-18T16:41:53.126Z,2.00
2018-10-18T16:44:22.825Z,1.70
2018-10-18T16:46:52.486Z,1.87
2018-10-18T16:49:22.875Z,1.80
2018-10-18T16:51:53.085Z,1.50
2018-10-18T16:54:22.530Z,1.30
2018-10-18T16:56:51.924Z,1.63
2018-10-18T16:59:21.837Z,2.00
2018-10-18T17:01:51.325Z,1.77
2018-10-18T17:04:21.279Z,1.80
2018-10-18T17:06:51.188Z,3.43
2018-10-18T17:09:21.541Z,2.87
2018-10-18T17:11:51.031Z,2.10
2018-10-18T17:14:21.117Z,1.60
2018-10-18T17:16:50.453Z,1.90
2018-10-18T17:19:19.974Z,2.70
2018-10-18T17:21:49.961Z,3.70
2018-10-18T17:24:19.626Z,3.10
2018-10-18T17:26:49.267Z,2.90
2018-10-18T17:29:18.878Z,2.50
2018-10-18T17:31:48.241Z,2.37
2018-10-18T17:34:17.843Z,2.93
2018-10-18T17:36:47.553Z,2.50
2018-10-18T17:39:16.779Z,1.80
2018-10-18T17:41:46.092Z,1.83
2018-10-18T17:44:15.987Z,2.20
2018-10-18T17:46:45.525Z,1.60
2018-10-18T17:49:14.979Z,1.97
2018-10-18T17:51:45.294Z,2.10
2018-10-18T17:54:15.214Z,2.20
2018-10-18T17:56:44.269Z,2.63
2018-10-18T17:59:13.908Z,2.30
2018-10-18T18:01:43.532Z,1.97
2018-10-18T18:04:12.871Z,2.20
2018-10-18T18:06:42.953Z,1.67
2018-10-18T18:09:12.665Z,1.87
2018-10-18T18:11:42.048Z,1.40
2018-10-18T18:14:11.853Z,2.00
2018-10-18T18:16:41.360Z,2.07
2018-10-18T18:19:10.729Z,1.50
2018-10-18T18:21:40.436Z,2.60
2018-10-18T18:24:10.082Z,1.50
2018-10-18T18:26:45.345Z,2.00
2018-10-18T18:29:09.502Z,3.20
2018-10-18T18:31:38.906Z,2.97
2018-10-18T18:34:08.424Z,3.40
2018-10-18T18:36:38.249Z,2.17
2018-10-18T18:39:10.134Z,2.23
2018-10-18T18:44:05.682Z,2.00
2018-10-18T18:46:35.102Z,1.77
2018-10-18T18:49:04.691Z,1.60
2018-10-18T18:51:34.343Z,1.60
2018-10-18T18:54:03.941Z,1.90
2018-10-18T18:56:33.268Z,2.20
2018-10-18T18:59:03.653Z,1.30
2018-10-18T19:01:33.007Z,1.90
2018-10-18T19:04:02.570Z,1.67
2018-10-18T19:06:32.404Z,1.90
2018-10-18T19:09:01.896Z,2.20
2018-10-18T19:11:31.715Z,2.50
2018-10-18T19:14:01.467Z,2.30
2018-10-18T19:16:30.898Z,2.07
2018-10-18T19:19:00.206Z,1.80
2018-10-18T19:21:29.722Z,1.87
2018-10-18T19:23:59.011Z,2.07
2018-10-18T19:26:28.488Z,1.60
2018-10-18T19:28:58.279Z,1.97
2018-10-18T19:31:27.720Z,1.50
2018-10-18T19:33:57.209Z,1.57
2018-10-18T19:36:26.940Z,1.57
2018-10-18T19:38:56.322Z,1.60
2018-10-18T19:41:25.630Z,1.57
2018-10-18T19:43:55.416Z,1.90
2018-10-18T19:46:24.933Z,1.63
2018-10-18T19:48:54.426Z,1.70
2018-10-18T19:51:24.360Z,1.80
2018-10-18T19:53:54.012Z,1.90
2018-10-18T19:56:23.567Z,2.33
2018-10-18T19:58:53.395Z,1.93
2018-10-18T20:01:22.962Z,1.57
2018-10-18T20:03:52.670Z,1.23
2018-10-18T20:06:22.446Z,2.33
2018-10-18T20:08:52.360Z,2.50
2018-10-18T20:11:22.187Z,1.90
2018-10-18T20:13:52.189Z,1.50
2018-10-18T20:16:21.642Z,2.13
2018-10-18T20:18:51.421Z,1.50
2018-10-18T20:21:21.440Z,1.70
2018-10-18T20:23:51.357Z,1.70
2018-10-18T20:26:21.218Z,1.20
2018-10-18T20:28:50.774Z,1.80
2018-10-18T20:31:21.856Z,1.73
2018-10-18T20:33:52.069Z,1.80
2018-10-18T20:36:21.618Z,1.70
2018-10-18T20:38:51.081Z,1.40
2018-10-18T20:41:20.623Z,1.43
2018-10-18T20:43:50.246Z,2.00
2018-10-18T20:46:19.873Z,1.40
2018-10-18T20:48:49.753Z,1.40
2018-10-18T20:51:19.099Z,1.87
2018-10-18T20:53:48.666Z,1.50
2018-10-18T20:56:18.564Z,1.43
2018-10-18T20:58:48.053Z,1.53
2018-10-18T21:01:17.481Z,1.30
2018-10-18T21:03:46.995Z,1.67
2018-10-18T21:06:16.599Z,1.90
2018-10-18T21:08:45.992Z,1.27
2018-10-18T21:11:15.671Z,1.60
2018-10-18T21:13:45.114Z,1.63
2018-10-18T21:16:14.521Z,1.60
2018-10-18T21:18:44.128Z,1.80
2018-10-18T21:21:13.665Z,1.80
2018-10-18T21:23:43.090Z,2.00
2018-10-18T21:26:12.844Z,1.37
2018-10-18T21:28:42.250Z,1.83
2018-10-18T21:31:11.647Z,1.60
2018-10-18T21:33:41.358Z,1.53
2018-10-18T21:36:10.871Z,1.60
2018-10-18T21:38:40.504Z,1.37
2018-10-18T21:41:10.271Z,1.50
2018-10-18T21:43:39.694Z,1.70
2018-10-18T21:46:09.146Z,2.00
2018-10-18T21:48:39.279Z,2.03
2018-10-18T21:51:08.491Z,1.70
2018-10-18T21:53:37.863Z,1.67
2018-10-18T21:56:07.734Z,1.67
2018-10-18T21:58:36.900Z,1.67
2018-10-18T22:01:06.593Z,1.70
2018-10-18T22:03:36.250Z,1.90
2018-10-18T22:06:05.980Z,1.70
2018-10-18T22:08:35.606Z,1.77
2018-10-18T22:11:05.398Z,1.40
2018-10-18T22:13:34.735Z,1.70
2018-10-18T22:16:04.243Z,1.60
2018-10-18T22:18:33.896Z,1.60
2018-10-18T22:21:03.012Z,1.80
2018-10-18T22:23:32.307Z,1.30
2018-10-18T22:26:01.841Z,1.60
2018-10-18T22:28:31.044Z,1.70
2018-10-18T22:31:00.326Z,2.17
2018-10-18T22:33:30.340Z,1.53
2018-10-18T22:35:59.624Z,1.87
2018-10-18T22:38:29.100Z,1.87
2018-10-18T22:40:59.099Z,2.30
2018-10-18T22:43:28.533Z,1.50
2018-10-18T22:45:59.879Z,1.37
2018-10-18T22:48:30.572Z,1.63
2018-10-18T22:51:00.184Z,2.30
2018-10-18T22:53:29.609Z,2.00
2018-10-18T22:55:59.136Z,1.90
2018-10-18T22:58:28.618Z,1.90
2018-10-18T23:00:58.142Z,2.00
2018-10-18T23:03:27.701Z,1.50
2018-10-18T23:05:57.029Z,1.43
2018-10-18T23:08:26.595Z,1.50
2018-10-18T23:10:56.120Z,1.50
2018-10-18T23:13:25.466Z,1.33
2018-10-18T23:15:55.358Z,1.37
2018-10-18T23:18:24.838Z,1.67
2018-10-18T23:20:54.225Z,1.70
2018-10-18T23:23:24.204Z,1.50
2018-10-18T23:25:54.007Z,1.30
2018-10-18T23:28:23.600Z,1.80
2018-10-18T23:30:53.571Z,1.20
2018-10-18T23:33:23.032Z,1.20
2018-10-18T23:35:52.476Z,1.30
2018-10-18T23:38:23.153Z,1.40
2018-10-18T23:40:52.872Z,1.50
2018-10-18T23:43:22.265Z,1.43
2018-10-18T23:45:54.060Z,1.33
2018-10-18T23:48:23.739Z,1.20
2018-10-18T23:50:53.741Z,1.60
2018-10-18T23:53:23.335Z,1.40
2018-10-18T23:55:52.846Z,1.60
2018-10-18T23:58:22.620Z,1.70
